Time;durP1;ratioP1;P1;durP2;ratioP2;P2;SDS_P1;SDS_P2;PMS_P1;PMS_P2;Temp;Humidity;BMP_temperature;BMP_pressure;BME280_temperature;BME280_humidity;BME280_pressure;Samples;Min_cycle;Max_cycle;Signal;HPM_P1;HPM_P2
2024/04/02 00:02:05;;;;;;;0.45;0.45;;;;;;;;;;5043404;28;20045;-76
2024/04/02 00:04:33;;;;;;;0.40;0.30;;;;;;;;;;5043699;28;20491;-78
2024/04/02 00:07:02;;;;;;;4.45;0.40;;;;;;;;;;5043581;28;20053;-74
2024/04/02 00:09:30;;;;;;;1.17;0.57;;;;;;;;;;5042724;28;20056;-77
2024/04/02 00:11:59;;;;;;;1.48;0.32;;;;;;;;;;5042618;28;20492;-74
2024/04/02 00:14:27;;;;;;;1.08;0.43;;;;;;;;;;5026204;28;20049;-74
2024/04/02 00:16:56;;;;;;;1.60;0.95;;;;;;;;;;5039524;28;20040;-73
2024/04/02 00:19:24;;;;;;;1.75;0.70;;;;;;;;;;5043172;28;20052;-74
2024/04/02 00:21:52;;;;;;;1.42;0.50;;;;;;;;;;5042761;28;20437;-75
2024/04/02 00:24:21;;;;;;;12.43;2.35;;;;;;;;;;5043010;28;20415;-76
2024/04/02 00:26:50;;;;;;;3.80;0.80;;;;;;;;;;5043474;28;20056;-76
2024/04/02 00:29:20;;;;;;;1.85;0.82;;;;;;;;;;5043083;28;20495;-76
2024/04/02 00:31:49;;;;;;;4.03;0.77;;;;;;;;;;5043247;28;20053;-76
2024/04/02 00:34:17;;;;;;;12.07;1.02;;;;;;;;;;5042864;28;20496;-76
2024/04/02 00:36:46;;;;;;;4.07;0.68;;;;;;;;;;5040988;28;20045;-76
2024/04/02 00:39:14;;;;;;;6.13;0.85;;;;;;;;;;5042328;28;20049;-76
2024/04/02 00:41:43;;;;;;;3.40;0.80;;;;;;;;;;5041863;28;20040;-76
2024/04/02 00:44:12;;;;;;;1.10;0.70;;;;;;;;;;5041372;28;20052;-76
2024/04/02 00:46:40;;;;;;;2.58;0.80;;;;;;;;;;5042070;28;20044;-75
2024/04/02 00:49:09;;;;;;;2.22;1.08;;;;;;;;;;5026111;28;20428;-76
2024/04/02 00:51:37;;;;;;;5.47;0.70;;;;;;;;;;5042767;28;20048;-76
2024/04/02 00:54:05;;;;;;;1.67;0.82;;;;;;;;;;5043295;28;20041;-76
2024/04/02 00:56:34;;;;;;;0.73;0.65;;;;;;;;;;5042627;28;20503;-76
2024/04/02 00:59:05;;;;;;;2.85;1.05;;;;;;;;;;5041825;28;20139;-76
2024/04/02 01:01:34;;;;;;;2.28;0.90;;;;;;;;;;5041435;28;20431;-76
2024/04/02 01:04:03;;;;;;;2.13;0.75;;;;;;;;;;5042170;28;20049;-76
2024/04/02 01:06:32;;;;;;;1.60;0.63;;;;;;;;;;5042251;28;20060;-76
2024/04/02 01:09:00;;;;;;;4.70;0.93;;;;;;;;;;5041955;28;20041;-76
2024/04/02 01:11:32;;;;;;;5.65;0.90;;;;;;;;;;5041744;28;20067;-76
2024/04/02 01:14:00;;;;;;;0.98;0.73;;;;;;;;;;5041798;28;20049;-76
2024/04/02 01:16:29;;;;;;;1.92;0.70;;;;;;;;;;5042053;28;20056;-76
2024/04/02 01:18:57;;;;;;;2.03;0.65;;;;;;;;;;5041932;28;20508;-76
2024/04/02 01:21:27;;;;;;;2.63;0.90;;;;;;;;;;5042180;28;20049;-76
2024/04/02 01:23:56;;;;;;;1.75;1.08;;;;;;;;;;5042143;28;20056;-75
2024/04/02 01:26:24;;;;;;;0.93;0.63;;;;;;;;;;5042264;28;20049;-75
2024/04/02 01:28:55;;;;;;;2.20;0.82;;;;;;;;;;5040092;28;20045;-75
2024/04/02 01:31:26;;;;;;;1.92;0.82;;;;;;;;;;5041844;28;20053;-75
2024/04/02 01:33:55;;;;;;;1.30;0.75;;;;;;;;;;5041742;28;20527;-75
2024/04/02 01:36:24;;;;;;;1.52;0.82;;;;;;;;;;5025227;28;20071;-77
2024/04/02 01:38:52;;;;;;;;;;;;;;;;;;5041885;28;20045;-75
2024/04/02 01:41:20;;;;;;;1.50;0.75;;;;;;;;;;5025092;28;19931;-75
2024/04/02 01:43:49;;;;;;;2.00;0.73;;;;;;;;;;5042095;28;20048;-75
2024/04/02 01:46:18;;;;;;;0.90;0.90;;;;;;;;;;5041380;28;20037;-75
2024/04/02 01:48:46;;;;;;;;;;;;;;;;;;5026076;28;20049;-75
2024/04/02 01:51:14;;;;;;;0.80;0.65;;;;;;;;;;5041724;28;19925;-75
2024/04/02 01:53:43;;;;;;;1.88;0.65;;;;;;;;;;5042429;28;20052;-75
2024/04/02 01:56:12;;;;;;;1.25;0.63;;;;;;;;;;5041669;28;20056;-75
2024/04/02 01:58:40;;;;;;;0.90;0.55;;;;;;;;;;5042050;28;20091;-75
2024/04/02 02:01:09;;;;;;;2.17;0.93;;;;;;;;;;5041755;28;20504;-75
2024/04/02 02:03:37;;;;;;;6.55;0.80;;;;;;;;;;5041667;28;20111;-75
2024/04/02 02:06:06;;;;;;;1.50;0.90;;;;;;;;;;5040899;28;20052;-75
2024/04/02 02:08:34;;;;;;;2.53;0.80;;;;;;;;;;5040415;28;20066;-75
2024/04/02 02:11:04;;;;;;;1.42;0.93;;;;;;;;;;5040488;28;20041;-75
2024/04/02 02:13:36;;;;;;;1.00;0.80;;;;;;;;;;5041364;28;20052;-75
2024/04/02 02:16:05;;;;;;;2.65;0.82;;;;;;;;;;5041084;28;21044;-75
2024/04/02 02:18:33;;;;;;;2.38;1.10;;;;;;;;;;5040617;28;20050;-75
2024/04/02 02:21:02;;;;;;;0.80;0.60;;;;;;;;;;5040890;28;20056;-74
2024/04/02 02:23:31;;;;;;;0.90;0.70;;;;;;;;;;5040848;28;20041;-74
2024/04/02 02:25:59;;;;;;;0.73;0.60;;;;;;;;;;5040748;28;20040;-74
2024/04/02 02:28:27;;;;;;;3.67;0.75;;;;;;;;;;5041054;28;20389;-74
2024/04/02 02:30:56;;;;;;;2.28;0.88;;;;;;;;;;5041121;28;20041;-74
2024/04/02 02:33:24;;;;;;;2.80;0.75;;;;;;;;;;5040456;28;20408;-74
2024/04/02 02:35:54;;;;;;;1.80;1.10;;;;;;;;;;5040576;28;20510;-74
2024/04/02 02:38:23;;;;;;;1.02;0.70;;;;;;;;;;5040705;28;20056;-74
2024/04/02 02:40:58;;;;;;;2.10;0.93;;;;;;;;;;5041080;28;20515;-74
2024/04/02 02:43:26;;;;;;;4.50;1.23;;;;;;;;;;5040541;28;20040;-74
2024/04/02 02:45:55;;;;;;;2.58;0.98;;;;;;;;;;5040380;28;20053;-74
2024/04/02 02:48:24;;;;;;;2.63;0.98;;;;;;;;;;5024360;28;20053;-74
2024/04/02 02:50:52;;;;;;;2.90;1.05;;;;;;;;;;5040345;28;20045;-73
2024/04/02 02:53:21;;;;;;;3.40;1.20;;;;;;;;;;5040656;28;20070;-74
2024/04/02 02:55:54;;;;;;;1.77;1.00;;;;;;;;;;5040075;28;20064;-74
2024/04/02 02:58:23;;;;;;;6.20;1.13;;;;;;;;;;5040305;28;20037;-74
2024/04/02 03:00:51;;;;;;;1.80;0.98;;;;;;;;;;5023493;28;20060;-74
2024/04/02 03:03:19;;;;;;;2.13;1.10;;;;;;;;;;5040783;28;20049;-74
2024/04/02 03:05:55;;;;;;;3.60;1.02;;;;;;;;;;5040892;28;20059;-74
2024/04/02 03:08:25;;;;;;;1.88;1.02;;;;;;;;;;5040734;28;20049;-74
2024/04/02 03:11:03;;;;;;;1.38;0.93;;;;;;;;;;5040634;28;20048;-73
2024/04/02 03:13:33;;;;;;;3.10;1.25;;;;;;;;;;5040908;28;20049;-73
2024/04/02 03:16:06;;;;;;;5.43;1.58;;;;;;;;;;5041238;28;20049;-74
2024/04/02 03:18:35;;;;;;;1.65;1.40;;;;;;;;;;5040090;28;20048;-74
2024/04/02 03:21:04;;;;;;;3.50;1.60;;;;;;;;;;5039600;28;20052;-73
2024/04/02 03:23:32;;;;;;;;;;;;;;;;;;5041670;28;20048;-74
2024/04/02 03:26:01;;;;;;;4.57;1.45;;;;;;;;;;5043868;28;19924;-73
2024/04/02 03:28:31;;;;;;;4.15;1.35;;;;;;;;;;5044125;28;20415;-73
2024/04/02 03:31:00;;;;;;;;;;;;;;;;;;5044333;28;20632;-74
2024/04/02 03:33:31;;;;;;;2.65;1.38;;;;;;;;;;5043761;28;19925;-73
2024/04/02 03:36:08;;;;;;;2.00;1.42;;;;;;;;;;5044270;28;20037;-73
2024/04/02 03:38:37;;;;;;;2.22;1.63;;;;;;;;;;5043767;28;20041;-73
2024/04/02 03:41:16;;;;;;;4.78;1.58;;;;;;;;;;5043905;28;20056;-74
2024/04/02 03:43:45;;;;;;;2.53;1.40;;;;;;;;;;5044243;28;20503;-73
2024/04/02 03:46:13;;;;;;;3.60;1.63;;;;;;;;;;5043572;28;20044;-73
2024/04/02 03:48:43;;;;;;;3.13;2.03;;;;;;;;;;5043245;28;20055;-73
2024/04/02 03:51:11;;;;;;;2.90;1.52;;;;;;;;;;5043246;28;20059;-74
2024/04/02 03:53:39;;;;;;;4.72;1.45;;;;;;;;;;5043636;28;20055;-73
2024/04/02 03:56:07;;;;;;;4.07;1.63;;;;;;;;;;5043363;28;20493;-74
2024/04/02 03:58:36;;;;;;;5.10;1.38;;;;;;;;;;5043619;28;20060;-73
2024/04/02 04:01:09;;;;;;;3.38;1.45;;;;;;;;;;5044264;28;20056;-74
2024/04/02 04:03:38;;;;;;;2.17;1.40;;;;;;;;;;5043799;28;20045;-73
2024/04/02 04:06:06;;;;;;;3.13;1.45;;;;;;;;;;5043312;28;20596;-73
2024/04/02 04:08:37;;;;;;;2.33;1.33;;;;;;;;;;5043349;28;20496;-74
2024/04/02 04:11:06;;;;;;;2.22;1.50;;;;;;;;;;5042818;28;20044;-74
2024/04/02 04:13:35;;;;;;;2.08;1.33;;;;;;;;;;5026797;28;20066;-73
2024/04/02 04:16:07;;;;;;;2.42;1.25;;;;;;;;;;5043010;28;20041;-74
2024/04/02 04:18:35;;;;;;;1.77;1.40;;;;;;;;;;5043221;28;20037;-74
2024/04/02 04:21:04;;;;;;;1.92;1.40;;;;;;;;;;5042608;28;20428;-73
2024/04/02 04:23:32;;;;;;;3.10;1.65;;;;;;;;;;5042320;28;20053;-74
2024/04/02 04:26:08;;;;;;;5.85;1.65;;;;;;;;;;5043269;28;20091;-74
2024/04/02 04:28:37;;;;;;;4.20;1.70;;;;;;;;;;5042970;28;20053;-73
2024/04/02 04:31:05;;;;;;;7.25;1.67;;;;;;;;;;5042929;28;20053;-73
2024/04/02 04:33:33;;;;;;;2.38;1.60;;;;;;;;;;5042365;28;20052;-74
2024/04/02 04:36:01;;;;;;;5.50;1.73;;;;;;;;;;5042696;28;20048;-74
2024/04/02 04:38:30;;;;;;;2.60;1.83;;;;;;;;;;5042287;28;20048;-74
2024/04/02 04:40:59;;;;;;;3.03;1.70;;;;;;;;;;5042709;28;20041;-73
2024/04/02 04:43:27;;;;;;;2.50;1.70;;;;;;;;;;5042681;28;20064;-73
2024/04/02 04:46:05;;;;;;;3.28;1.58;;;;;;;;;;5043496;28;20041;-74
2024/04/02 04:48:34;;;;;;;1.98;1.50;;;;;;;;;;5042730;28;20047;-73
2024/04/02 04:51:05;;;;;;;3.55;1.63;;;;;;;;;;5043306;28;20056;-73
2024/04/02 04:53:34;;;;;;;5.40;1.55;;;;;;;;;;5042550;28;20507;-74
2024/04/02 04:56:06;;;;;;;2.47;1.58;;;;;;;;;;5042305;28;20049;-74
2024/04/02 04:58:36;;;;;;;2.67;1.70;;;;;;;;;;5042284;28;20037;-74
2024/04/02 05:01:05;;;;;;;4.30;1.65;;;;;;;;;;5041436;28;20045;-73
2024/04/02 05:03:33;;;;;;;5.18;1.85;;;;;;;;;;5042148;28;20048;-73
2024/04/02 05:06:08;;;;;;;4.32;1.85;;;;;;;;;;5042504;28;20474;-73
2024/04/02 05:08:38;;;;;;;2.75;1.58;;;;;;;;;;5042563;28;20049;-73
2024/04/02 05:11:10;;;;;;;5.88;1.92;;;;;;;;;;5041938;28;20045;-73
2024/04/02 05:13:42;;;;;;;2.25;1.63;;;;;;;;;;5025253;28;20523;-73
2024/04/02 05:16:11;;;;;;;3.65;1.60;;;;;;;;;;5042321;28;20594;-73
2024/04/02 05:18:39;;;;;;;2.50;1.38;;;;;;;;;;5042128;28;20047;-73
2024/04/02 05:21:08;;;;;;;7.22;1.55;;;;;;;;;;5042441;28;20523;-73
2024/04/02 05:23:36;;;;;;;4.13;1.73;;;;;;;;;;5042099;28;20037;-74
2024/04/02 05:26:05;;;;;;;4.38;1.77;;;;;;;;;;5025240;28;20057;-74
2024/04/02 05:28:33;;;;;;;1.90;1.52;;;;;;;;;;5042224;28;20048;-73
2024/04/02 05:31:02;;;;;;;6.97;1.65;;;;;;;;;;5041692;28;20037;-74
2024/04/02 05:33:30;;;;;;;3.38;1.85;;;;;;;;;;5042336;28;20067;-74
2024/04/02 05:36:00;;;;;;;2.00;1.50;;;;;;;;;;5042237;28;20045;-74
2024/04/02 05:38:29;;;;;;;2.70;1.70;;;;;;;;;;5041376;28;20056;-73
2024/04/02 05:40:58;;;;;;;3.40;1.60;;;;;;;;;;5041518;28;20041;-73
2024/04/02 05:43:27;;;;;;;6.18;1.60;;;;;;;;;;5041624;28;20052;-73
2024/04/02 05:45:57;;;;;;;4.57;1.80;;;;;;;;;;5040928;28;20522;-73
2024/04/02 05:48:25;;;;;;;5.90;2.05;;;;;;;;;;5041674;28;20044;-74
2024/04/02 05:50:54;;;;;;;3.28;1.60;;;;;;;;;;5041687;28;20048;-73
2024/04/02 05:53:23;;;;;;;2.17;1.52;;;;;;;;;;5040877;28;20060;-73
2024/04/02 05:55:53;;;;;;;;;;;;;;;;;;5041190;28;20488;-73
2024/04/02 05:58:21;;;;;;;2.40;1.67;;;;;;;;;;5041694;28;19925;-73
2024/04/02 06:00:50;;;;;;;4.50;2.10;;;;;;;;;;5041650;28;20071;-73
2024/04/02 06:03:18;;;;;;;4.00;1.77;;;;;;;;;;5041056;28;20041;-73
2024/04/02 06:05:46;;;;;;;3.97;1.77;;;;;;;;;;5040560;28;20045;-73
2024/04/02 06:08:16;;;;;;;4.22;1.75;;;;;;;;;;5041219;28;20515;-73
2024/04/02 06:10:45;;;;;;;4.63;2.03;;;;;;;;;;5041261;28;20072;-73
2024/04/02 06:13:13;;;;;;;4.63;1.85;;;;;;;;;;5041999;28;20056;-73
2024/04/02 06:15:42;;;;;;;5.00;2.13;;;;;;;;;;5042038;28;20056;-73
2024/04/02 06:18:10;;;;;;;3.22;2.33;;;;;;;;;;5041859;28;20044;-73
2024/04/02 06:20:40;;;;;;;8.77;2.10;;;;;;;;;;5040641;28;20052;-73
2024/04/02 06:23:08;;;;;;;3.42;1.90;;;;;;;;;;5040954;28;20048;-73
2024/04/02 06:25:37;;;;;;;7.57;2.20;;;;;;;;;;5041095;28;20500;-73
2024/04/02 06:28:05;;;;;;;3.75;1.90;;;;;;;;;;5040344;28;20041;-73
2024/04/02 06:30:34;;;;;;;4.05;1.70;;;;;;;;;;5040491;28;20420;-72
2024/04/02 06:33:02;;;;;;;4.65;2.20;;;;;;;;;;5041132;28;20048;-73
2024/04/02 06:35:33;;;;;;;4.90;2.25;;;;;;;;;;5041677;28;20048;-72
2024/04/02 06:38:02;;;;;;;3.38;1.90;;;;;;;;;;5041203;28;20519;-72
2024/04/02 06:40:30;;;;;;;5.93;2.10;;;;;;;;;;5041136;28;20045;-73
2024/04/02 06:42:59;;;;;;;6.40;2.30;;;;;;;;;;5040961;28;20044;-73
2024/04/02 06:45:27;;;;;;;3.80;1.90;;;;;;;;;;5040537;28;20052;-73
2024/04/02 06:47:56;;;;;;;4.35;1.77;;;;;;;;;;5041160;28;20052;-73
2024/04/02 06:50:25;;;;;;;4.05;2.10;;;;;;;;;;5040411;28;20044;-73
2024/04/02 06:52:54;;;;;;;3.47;1.95;;;;;;;;;;5040428;28;20048;-73
2024/04/02 06:55:22;;;;;;;5.82;1.73;;;;;;;;;;5039907;28;20057;-72
2024/04/02 06:57:51;;;;;;;3.55;1.63;;;;;;;;;;5042516;28;20125;-73
2024/04/02 07:00:19;;;;;;;4.55;2.03;;;;;;;;;;5044866;28;20048;-73
2024/04/02 07:02:47;;;;;;;5.38;2.05;;;;;;;;;;5044764;28;20040;-73
2024/04/02 07:05:16;;;;;;;3.42;2.10;;;;;;;;;;5044719;28;20056;-73
2024/04/02 07:07:45;;;;;;;3.88;2.13;;;;;;;;;;5044357;28;20041;-73
2024/04/02 07:10:15;;;;;;;3.95;2.00;;;;;;;;;;5045026;28;20079;-73
2024/04/02 07:12:43;;;;;;;4.55;2.15;;;;;;;;;;5044140;28;20447;-73
2024/04/02 07:15:11;;;;;;;10.23;2.20;;;;;;;;;;5044103;28;20052;-73
2024/04/02 07:17:39;;;;;;;4.03;2.25;;;;;;;;;;5044259;28;20056;-73
2024/04/02 07:20:09;;;;;;;5.15;2.67;;;;;;;;;;5044138;28;20056;-73
2024/04/02 07:22:39;;;;;;;4.10;2.60;;;;;;;;;;5043941;28;20048;-73
2024/04/02 07:25:08;;;;;;;5.93;2.40;;;;;;;;;;5044031;28;20053;-73
2024/04/02 07:27:37;;;;;;;7.35;2.90;;;;;;;;;;5027323;28;20120;-74
2024/04/02 07:30:06;;;;;;;3.33;2.38;;;;;;;;;;5044046;28;20526;-73
2024/04/02 07:32:34;;;;;;;4.45;2.75;;;;;;;;;;5044301;28;20052;-73
2024/04/02 07:35:03;;;;;;;6.45;2.80;;;;;;;;;;5044238;28;20203;-73
2024/04/02 07:37:32;;;;;;;4.30;2.50;;;;;;;;;;5044623;28;21178;-73
2024/04/02 07:40:01;;;;;;;3.13;2.15;;;;;;;;;;5044253;28;20479;-73
2024/04/02 07:42:29;;;;;;;6.55;2.65;;;;;;;;;;5043976;28;20525;-74
2024/04/02 07:44:58;;;;;;;6.53;2.83;;;;;;;;;;5027059;28;20041;-73
2024/04/02 07:47:26;;;;;;;7.07;3.25;;;;;;;;;;5043429;28;20060;-73
2024/04/02 07:49:55;;;;;;;6.63;2.65;;;;;;;;;;5043514;28;20415;-73
2024/04/02 07:52:24;;;;;;;5.45;2.58;;;;;;;;;;5043853;28;20420;-73
2024/04/02 07:54:52;;;;;;;3.88;2.45;;;;;;;;;;5043542;28;20075;-73
2024/04/02 07:57:20;;;;;;;4.15;2.38;;;;;;;;;;5042771;28;20067;-74
2024/04/02 07:59:49;;;;;;;6.70;2.50;;;;;;;;;;5043515;28;20041;-74
2024/04/02 08:02:17;;;;;;;5.97;3.03;;;;;;;;;;5026805;28;20068;-74
2024/04/02 08:04:49;;;;;;;4.70;2.58;;;;;;;;;;5043675;28;20492;-74
2024/04/02 08:07:18;;;;;;;4.70;2.83;;;;;;;;;;5043902;28;20056;-74
2024/04/02 08:09:47;;;;;;;5.70;2.58;;;;;;;;;;5042837;28;20037;-74
2024/04/02 08:12:15;;;;;;;5.07;3.15;;;;;;;;;;5043153;28;20040;-74
2024/04/02 08:14:43;;;;;;;7.53;3.17;;;;;;;;;;5043224;28;20045;-74
2024/04/02 08:17:12;;;;;;;5.22;2.55;;;;;;;;;;5042756;28;20041;-86
2024/04/02 08:19:41;;;;;;;8.05;3.05;;;;;;;;;;5027238;28;20052;-74
2024/04/02 08:22:10;;;;;;;4.72;2.75;;;;;;;;;;5043367;28;20040;-75
2024/04/02 08:24:38;;;;;;;;;;;;;;;;;;5043972;28;20047;-75
2024/04/02 08:27:07;;;;;;;3.58;2.25;;;;;;;;;;5043385;28;20419;-75
2024/04/02 08:29:35;;;;;;;5.20;2.75;;;;;;;;;;5042916;28;20071;-75
2024/04/02 08:32:04;;;;;;;7.32;2.33;;;;;;;;;;5043560;28;20060;-75
2024/04/02 08:34:33;;;;;;;4.60;2.40;;;;;;;;;;5043658;28;20777;-75
2024/04/02 08:37:02;;;;;;;5.88;2.70;;;;;;;;;;5043337;28;20436;-75
2024/04/02 08:39:30;;;;;;;2.95;2.17;;;;;;;;;;5043291;28;20385;-75
2024/04/02 08:42:03;;;;;;;4.07;2.95;;;;;;;;;;5042356;28;20049;-75
2024/04/02 08:44:34;;;;;;;3.45;2.50;;;;;;;;;;5042856;28;20048;-75
2024/04/02 08:47:03;;;;;;;4.47;2.35;;;;;;;;;;5042167;28;20051;-75
2024/04/02 08:49:32;;;;;;;10.05;2.50;;;;;;;;;;5042285;28;20044;-75
2024/04/02 08:52:01;;;;;;;8.30;2.47;;;;;;;;;;5026734;28;20053;-74
2024/04/02 08:54:30;;;;;;;4.22;2.13;;;;;;;;;;5042296;28;20068;-74
2024/04/02 08:56:59;;;;;;;3.78;2.20;;;;;;;;;;5025114;28;20089;-74
2024/04/02 08:59:32;;;;;;;4.55;2.63;;;;;;;;;;5042199;28;20078;-75
2024/04/02 09:02:02;;;;;;;6.20;2.78;;;;;;;;;;5042622;28;20041;-75
2024/04/02 09:04:32;;;;;;;6.13;2.47;;;;;;;;;;5042162;28;20072;-74
2024/04/02 09:07:02;;;;;;;5.65;2.47;;;;;;;;;;5041953;28;20618;-74
2024/04/02 09:09:30;;;;;;;4.20;2.40;;;;;;;;;;5025544;28;20624;-74
2024/04/02 09:12:04;;;;;;;5.35;2.83;;;;;;;;;;5041664;28;20527;-74
2024/04/02 09:14:38;;;;;;;5.75;4.72;;;;;;;;;;5042268;28;20045;-74
2024/04/02 09:17:08;;;;;;;3.05;2.40;;;;;;;;;;5043030;28;20071;-78
2024/04/02 09:19:36;;;;;;;4.38;2.60;;;;;;;;;;5042177;28;20053;-74
2024/04/02 09:22:05;;;;;;;8.30;2.70;;;;;;;;;;5040809;28;20049;-74
2024/04/02 09:24:34;;;;;;;7.15;2.88;;;;;;;;;;5041837;28;20061;-72
2024/04/02 09:27:02;;;;;;;5.40;2.45;;;;;;;;;;5041709;28;20048;-75
2024/04/02 09:29:31;;;;;;;2.55;2.13;;;;;;;;;;5041713;28;20072;-73
2024/04/02 09:32:06;;;;;;;4.55;2.30;;;;;;;;;;5025432;28;20538;-72
2024/04/02 09:34:35;;;;;;;;;;;;;;;;;;5026536;28;21071;-74
2024/04/02 09:37:15;;;;;;;3.60;2.22;;;;;;;;;;5041718;28;20348;-75
2024/04/02 09:39:47;;;;;;;3.60;2.25;;;;;;;;;;5041482;28;20045;-74
2024/04/02 09:42:16;;;;;;;3.65;2.15;;;;;;;;;;5041363;28;20049;-75
2024/04/02 09:44:45;;;;;;;;;;;;;;;;;;5042456;28;20527;-74
2024/04/02 09:47:18;;;;;;;4.03;2.20;;;;;;;;;;5042092;28;19932;-74
2024/04/02 09:49:48;;;;;;;6.47;2.92;;;;;;;;;;5042174;28;20072;-73
2024/04/02 09:52:16;;;;;;;5.97;3.33;;;;;;;;;;5041523;28;20060;-74
2024/04/02 09:54:46;;;;;;;4.13;2.13;;;;;;;;;;5041159;28;20056;-74
2024/04/02 09:57:15;;;;;;;3.67;2.58;;;;;;;;;;5042266;28;20048;-75
2024/04/02 09:59:47;;;;;;;4.28;2.72;;;;;;;;;;5025306;28;20053;-74
2024/04/02 10:02:23;;;;;;;4.72;2.88;;;;;;;;;;5025018;28;20617;-74
2024/04/02 10:04:54;;;;;;;3.58;2.72;;;;;;;;;;5025322;28;20052;-75
2024/04/02 10:07:30;;;;;;;5.13;2.45;;;;;;;;;;5040432;28;20052;-74
2024/04/02 10:09:59;;;;;;;6.30;2.75;;;;;;;;;;5041932;28;20147;-74
2024/04/02 10:12:33;;;;;;;6.97;4.60;;;;;;;;;;5040888;28;20044;-74
2024/04/02 10:15:12;;;;;;;15.65;4.38;;;;;;;;;;5024800;28;20045;-74
2024/04/02 10:17:40;;;;;;;7.10;2.40;;;;;;;;;;5040659;28;20065;-75
2024/04/02 10:20:34;;;;;;;8.50;2.80;;;;;;;;;;5041084;28;20049;-83
2024/04/02 10:23:04;;;;;;;11.18;3.38;;;;;;;;;;5040689;28;20048;-74
2024/04/02 10:25:32;;;;;;;7.57;2.60;;;;;;;;;;5040642;28;20044;-76
2024/04/02 10:28:03;;;;;;;5.05;2.50;;;;;;;;;;5040639;28;20049;-75
2024/04/02 10:30:33;;;;;;;5.57;2.22;;;;;;;;;;5041060;28;20049;-75
2024/04/02 10:33:02;;;;;;;10.27;2.60;;;;;;;;;;5040596;28;20048;-76
2024/04/02 10:35:30;;;;;;;4.95;2.38;;;;;;;;;;5041400;28;20045;-74
2024/04/02 10:37:59;;;;;;;3.05;2.40;;;;;;;;;;5041202;28;20055;-74
2024/04/02 10:40:29;;;;;;;5.13;2.05;;;;;;;;;;5024618;28;20056;-74
2024/04/02 10:42:57;;;;;;;2.83;1.80;;;;;;;;;;5023109;28;20056;-74
2024/04/02 10:45:27;;;;;;;;;;;;;;;;;;5041359;28;20116;-74
2024/04/02 10:47:56;;;;;;;5.65;1.95;;;;;;;;;;5040825;28;19931;-74
2024/04/02 10:50:25;;;;;;;4.75;1.67;;;;;;;;;;5040504;28;20052;-75
2024/04/02 10:52:54;;;;;;;2.53;1.45;;;;;;;;;;5040841;28;20044;-74
2024/04/02 10:55:24;;;;;;;8.15;2.10;;;;;;;;;;5040222;28;20057;-83
2024/04/02 10:57:52;;;;;;;7.97;2.50;;;;;;;;;;5040721;28;20048;-75
2024/04/02 11:00:21;;;;;;;4.25;2.50;;;;;;;;;;5040023;28;20052;-74
2024/04/02 11:02:49;;;;;;;4.03;2.17;;;;;;;;;;5040540;28;20055;-75
2024/04/02 11:05:17;;;;;;;5.40;1.95;;;;;;;;;;5040354;28;20048;-74
2024/04/02 11:07:48;;;;;;;3.65;2.60;;;;;;;;;;5040131;28;20044;-74
2024/04/02 11:10:17;;;;;;;5.82;2.22;;;;;;;;;;5040543;28;20049;-74
2024/04/02 11:12:45;;;;;;;8.10;2.30;;;;;;;;;;5040032;28;20045;-73
2024/04/02 11:15:14;;;;;;;4.25;1.95;;;;;;;;;;5040668;28;20420;-83
2024/04/02 11:17:42;;;;;;;5.38;1.92;;;;;;;;;;5040443;28;20640;-76
2024/04/02 11:20:11;;;;;;;6.00;1.85;;;;;;;;;;5023991;28;20423;-75
2024/04/02 11:25:29;;;;;;;2.33;1.70;;;;;;;;;;5026102;28;20049;-74
2024/04/02 11:28:05;;;;;;;6.95;1.73;;;;;;;;;;5041433;28;20041;-73
2024/04/02 11:30:33;;;;;;;2.17;1.50;;;;;;;;;;5040954;28;20036;-74
2024/04/02 11:33:02;;;;;;;2.70;1.60;;;;;;;;;;5041119;28;20041;-76
2024/04/02 11:35:31;;;;;;;;;;;;;;;;;;5041402;28;20045;-75
2024/04/02 11:37:59;;;;;;;3.95;1.80;;;;;;;;;;5039998;28;19921;-74
2024/04/02 11:40:28;;;;;;;3.13;1.77;;;;;;;;;;5039960;28;20076;-75
2024/04/02 11:42:56;;;;;;;3.10;1.52;;;;;;;;;;5039755;28;20072;-75
2024/04/02 11:45:25;;;;;;;6.07;1.70;;;;;;;;;;5026232;28;20404;-74
2024/04/02 11:47:54;;;;;;;3.15;1.38;;;;;;;;;;5027450;28;20053;-75
2024/04/02 11:50:22;;;;;;;8.10;1.42;;;;;;;;;;5043342;28;20666;-79
2024/04/02 11:52:51;;;;;;;1.67;1.20;;;;;;;;;;5043442;28;20424;-75
2024/04/02 11:55:19;;;;;;;4.95;1.77;;;;;;;;;;5043994;28;20542;-77
2024/04/02 12:00:35;;;;;;;5.15;1.60;;;;;;;;;;5043983;28;20045;-74
2024/04/02 12:03:04;;;;;;;1.75;1.30;;;;;;;;;;5043587;28;20049;-76
2024/04/02 12:05:32;;;;;;;;;;;;;;;;;;5044371;28;20048;-79
2024/04/02 12:08:00;;;;;;;3.80;1.25;;;;;;;;;;5043946;28;20383;-76
2024/04/02 12:10:28;;;;;;;4.53;1.17;;;;;;;;;;5043960;28;20049;-75
2024/04/02 12:12:57;;;;;;;8.45;1.60;;;;;;;;;;5048367;28;20687;-74
2024/04/02 12:15:26;;;;;;;4.90;1.33;;;;;;;;;;5036669;28;20053;-73
2024/04/02 12:17:54;;;;;;;6.25;1.33;;;;;;;;;;5055380;28;20045;-74
2024/04/02 12:20:23;;;;;;;8.10;1.40;;;;;;;;;;5052141;28;20053;-74
2024/04/02 12:22:51;;;;;;;3.63;1.00;;;;;;;;;;5043094;28;20067;-75
2024/04/02 12:25:22;;;;;;;3.78;1.02;;;;;;;;;;5043181;28;20049;-74
2024/04/02 12:27:55;;;;;;;7.32;1.00;;;;;;;;;;5042715;28;20056;-76
2024/04/02 12:30:23;;;;;;;1.95;0.93;;;;;;;;;;5026643;28;20041;-75
2024/04/02 12:32:51;;;;;;;11.63;1.65;;;;;;;;;;5043291;28;20041;-75
2024/04/02 12:35:20;;;;;;;6.97;1.23;;;;;;;;;;5042860;28;20040;-74
2024/04/02 12:37:49;;;;;;;10.02;1.30;;;;;;;;;;5042872;28;20624;-75
2024/04/02 12:40:18;;;;;;;3.45;0.77;;;;;;;;;;5042836;28;20041;-75
2024/04/02 12:42:46;;;;;;;2.03;0.93;;;;;;;;;;5042587;28;20052;-72
2024/04/02 12:45:14;;;;;;;5.57;0.85;;;;;;;;;;5043072;28;20583;-72
2024/04/02 12:47:44;;;;;;;5.88;0.85;;;;;;;;;;5042964;28;20056;-77
2024/04/02 12:50:13;;;;;;;15.68;1.63;;;;;;;;;;5042823;28;20054;-74
2024/04/02 12:52:42;;;;;;;4.55;0.80;;;;;;;;;;5045808;28;20048;-77
2024/04/02 12:55:10;;;;;;;8.73;0.93;;;;;;;;;;5042772;28;20401;-78
2024/04/02 12:57:38;;;;;;;9.27;1.30;;;;;;;;;;5046689;28;20067;-74
2024/04/02 13:00:07;;;;;;;8.02;1.30;;;;;;;;;;5056781;28;20057;-72
2024/04/02 13:02:36;;;;;;;11.40;0.93;;;;;;;;;;5055239;28;20057;-75
2024/04/02 13:05:05;;;;;;;15.13;1.33;;;;;;;;;;5042878;28;20045;-77
2024/04/02 13:07:40;;;;;;;4.82;0.70;;;;;;;;;;5042461;28;20064;-78
2024/04/02 13:10:10;;;;;;;0.90;0.55;;;;;;;;;;5042411;28;20045;-75
2024/04/02 13:12:39;;;;;;;7.43;1.00;;;;;;;;;;5041793;28;20048;-77
2024/04/02 13:15:07;;;;;;;;;;;;;;;;;;5042730;28;20045;-76
2024/04/02 13:17:36;;;;;;;;;;;;;;;;;;5042149;28;19928;-73
2024/04/02 13:20:05;;;;;;;4.30;0.88;;;;;;;;;;5026098;28;19924;-74
2024/04/02 13:22:33;;;;;;;12.85;1.10;;;;;;;;;;5042086;28;20053;-75
2024/04/02 13:25:02;;;;;;;5.57;0.98;;;;;;;;;;5042224;28;20037;-77
2024/04/02 13:27:30;;;;;;;4.25;0.70;;;;;;;;;;5042222;28;20048;-74
2024/04/02 13:29:59;;;;;;;3.08;0.88;;;;;;;;;;5041941;28;20045;-75
2024/04/02 13:32:27;;;;;;;4.70;0.82;;;;;;;;;;5042083;28;20526;-75
2024/04/02 13:34:56;;;;;;;3.42;0.80;;;;;;;;;;5041882;28;20044;-75
2024/04/02 13:37:24;;;;;;;2.05;0.65;;;;;;;;;;5042356;28;20040;-75
2024/04/02 13:39:53;;;;;;;3.00;1.20;;;;;;;;;;5042513;28;20052;-75
2024/04/02 13:42:22;;;;;;;3.80;0.70;;;;;;;;;;5041871;28;20412;-75
2024/04/02 13:44:50;;;;;;;;;;;;;;;;;;5041841;28;20068;-74
2024/04/02 13:47:18;;;;;;;5.25;0.80;;;;;;;;;;5041386;28;19924;-75
2024/04/02 13:49:48;;;;;;;1.38;0.57;;;;;;;;;;5041669;28;20056;-77
2024/04/02 13:52:16;;;;;;;1.80;0.60;;;;;;;;;;5041240;28;20068;-74
2024/04/02 13:54:48;;;;;;;10.23;0.70;;;;;;;;;;5041918;28;20895;-75
2024/04/02 13:57:17;;;;;;;1.92;0.52;;;;;;;;;;5041591;28;20842;-76
2024/04/02 13:59:45;;;;;;;3.40;0.60;;;;;;;;;;5041132;28;20443;-73
2024/04/02 14:02:14;;;;;;;2.25;0.68;;;;;;;;;;5041321;28;20064;-79
2024/04/02 14:04:46;;;;;;;6.32;0.70;;;;;;;;;;5041006;28;20048;-75
2024/04/02 14:07:15;;;;;;;4.22;0.50;;;;;;;;;;5040905;28;20044;-76
2024/04/02 14:09:43;;;;;;;2.08;0.93;;;;;;;;;;5041611;28;20496;-75
2024/04/02 14:12:11;;;;;;;2.50;0.60;;;;;;;;;;5040487;28;20064;-76
2024/04/02 14:14:39;;;;;;;2.00;0.70;;;;;;;;;;5041984;28;20041;-74
2024/04/02 14:17:09;;;;;;;4.45;0.80;;;;;;;;;;5024533;28;20059;-74
2024/04/02 14:19:39;;;;;;;4.40;0.98;;;;;;;;;;5040556;28;20045;-74
2024/04/02 14:22:07;;;;;;;1.92;0.80;;;;;;;;;;5040808;28;20056;-73
2024/04/02 14:24:36;;;;;;;1.65;0.43;;;;;;;;;;5041060;28;20056;-76
2024/04/02 14:27:04;;;;;;;;;;;;;;;;;;5041731;28;20044;-73
2024/04/02 14:29:32;;;;;;;1.38;0.57;;;;;;;;;;5040847;28;19924;-77
2024/04/02 14:32:01;;;;;;;3.83;0.52;;;;;;;;;;5040383;28;20059;-73
2024/04/02 14:34:29;;;;;;;1.42;0.50;;;;;;;;;;5040925;28;20452;-76
2024/04/02 14:36:58;;;;;;;3.90;0.50;;;;;;;;;;5041036;28;20040;-73
2024/04/02 14:39:26;;;;;;;8.57;0.90;;;;;;;;;;5040879;28;20049;-73
2024/04/02 14:41:55;;;;;;;3.92;0.50;;;;;;;;;;5040650;28;20041;-73
2024/04/02 14:44:23;;;;;;;0.47;0.43;;;;;;;;;;5040585;28;20040;-77
2024/04/02 14:46:52;;;;;;;4.13;0.95;;;;;;;;;;5040555;28;20049;-74
2024/04/02 14:49:20;;;;;;;1.10;0.47;;;;;;;;;;5040870;28;20037;-73
2024/04/02 14:51:48;;;;;;;2.97;0.47;;;;;;;;;;5040156;28;20049;-76
2024/04/02 14:54:20;;;;;;;3.10;0.93;;;;;;;;;;5041097;28;20060;-77
2024/04/02 14:56:50;;;;;;;1.65;0.68;;;;;;;;;;5008762;28;20431;-74
2024/04/02 14:59:20;;;;;;;2.28;0.40;;;;;;;;;;5041349;28;20056;-73
2024/04/02 15:01:50;;;;;;;0.40;0.40;;;;;;;;;;5041069;28;20045;-76
2024/04/02 15:04:18;;;;;;;6.03;1.05;;;;;;;;;;5040893;28;20045;-76
2024/04/02 15:06:48;;;;;;;2.13;0.50;;;;;;;;;;5040306;28;20064;-76